createdAt,value
2017-11-17T00:00:34.632Z,67.00
2017-11-17T00:03:02.098Z,67.00
2017-11-17T00:05:30.347Z,67.00
2017-11-17T00:07:58.611Z,66.80
2017-11-17T00:10:26.836Z,66.80
2017-11-17T00:12:54.339Z,66.80
2017-11-17T00:15:21.827Z,66.70
2017-11-17T00:17:49.289Z,67.40
2017-11-17T00:20:16.751Z,66.70
2017-11-17T00:22:44.992Z,66.70
2017-11-17T00:25:12.475Z,66.60
2017-11-17T00:27:39.938Z,66.60
2017-11-17T00:30:07.404Z,66.60
2017-11-17T00:32:35.644Z,66.70
2017-11-17T00:35:03.103Z,66.60
2017-11-17T00:37:30.602Z,66.70
2017-11-17T00:39:58.857Z,66.80
2017-11-17T00:42:26.319Z,66.70
2017-11-17T00:44:53.776Z,66.50
2017-11-17T00:47:22.023Z,66.40
2017-11-17T00:49:49.483Z,66.30
2017-11-17T00:52:17.717Z,66.30
2017-11-17T00:54:45.159Z,66.30
2017-11-17T00:57:12.612Z,66.30
2017-11-17T00:59:40.851Z,66.30
2017-11-17T01:02:09.103Z,66.30
2017-11-17T01:04:36.558Z,66.30
2017-11-17T01:07:04.029Z,66.30
2017-11-17T01:09:32.243Z,66.90
2017-11-17T01:12:00.486Z,66.20
2017-11-17T01:14:27.943Z,66.20
2017-11-17T01:16:55.426Z,66.20
2017-11-17T01:19:22.884Z,66.20
2017-11-17T01:21:50.343Z,66.20
2017-11-17T01:24:17.799Z,66.10
2017-11-17T01:26:45.335Z,66.10
2017-11-17T01:29:12.791Z,66.00
2017-11-17T01:31:40.272Z,66.00
2017-11-17T01:34:07.731Z,66.00
2017-11-17T01:36:35.974Z,66.00
2017-11-17T01:39:03.464Z,65.90
2017-11-17T01:41:31.715Z,65.80
2017-11-17T01:43:59.192Z,65.80
2017-11-17T01:46:26.656Z,65.90
2017-11-17T01:48:54.111Z,65.80
2017-11-17T01:51:21.568Z,65.80
2017-11-17T01:53:49.022Z,65.60
2017-11-17T01:56:16.477Z,65.50
2017-11-17T01:58:43.941Z,65.60
2017-11-17T02:01:11.389Z,65.60
2017-11-17T02:03:38.848Z,65.70
2017-11-17T02:06:06.296Z,65.60
2017-11-17T02:08:33.767Z,65.60
2017-11-17T02:11:01.214Z,65.60
2017-11-17T02:13:28.679Z,65.60
2017-11-17T02:15:56.140Z,65.70
2017-11-17T02:18:23.596Z,65.60
2017-11-17T02:20:51.055Z,65.60
2017-11-17T02:23:18.507Z,65.60
2017-11-17T02:25:45.963Z,65.70
2017-11-17T02:28:14.927Z,65.50
2017-11-17T02:30:48.065Z,65.50
2017-11-17T02:33:16.280Z,65.40
2017-11-17T02:35:43.751Z,65.40
2017-11-17T02:38:11.219Z,65.40
2017-11-17T02:40:38.682Z,65.30
2017-11-17T02:43:06.158Z,65.10
2017-11-17T02:45:34.410Z,65.30
2017-11-17T02:48:01.863Z,65.30
2017-11-17T02:50:29.344Z,65.30
2017-11-17T02:52:56.789Z,65.30
2017-11-17T02:55:24.263Z,65.30
2017-11-17T02:57:51.715Z,65.20
2017-11-17T03:00:19.176Z,65.00
2017-11-17T03:02:46.618Z,65.10
2017-11-17T03:05:14.090Z,65.00
2017-11-17T03:07:42.320Z,65.00
2017-11-17T03:10:09.780Z,65.00
2017-11-17T03:12:37.228Z,64.90
2017-11-17T03:15:04.701Z,64.90
2017-11-17T03:17:32.158Z,65.00
2017-11-17T03:20:00.386Z,64.90
2017-11-17T03:22:28.613Z,64.90
2017-11-17T03:24:56.074Z,64.90
2017-11-17T03:27:23.524Z,64.80
2017-11-17T03:29:50.975Z,64.80
2017-11-17T03:32:18.426Z,64.90
2017-11-17T03:34:45.882Z,64.80
2017-11-17T03:37:13.348Z,65.60
2017-11-17T03:39:40.803Z,64.70
2017-11-17T03:42:08.271Z,64.60
2017-11-17T03:44:35.730Z,64.60
2017-11-17T03:47:03.980Z,64.40
2017-11-17T03:49:31.443Z,64.40
2017-11-17T03:51:59.679Z,64.60
2017-11-17T03:54:27.900Z,64.60
2017-11-17T03:56:56.129Z,64.60
2017-11-17T03:59:23.582Z,64.50
2017-11-17T04:01:51.827Z,64.70
2017-11-17T04:04:20.051Z,64.60
2017-11-17T04:06:48.266Z,64.60
2017-11-17T04:09:15.760Z,64.60
2017-11-17T04:11:43.215Z,64.50
2017-11-17T04:14:10.674Z,64.50
2017-11-17T04:16:38.910Z,64.40
2017-11-17T04:19:06.380Z,64.40
2017-11-17T04:21:33.842Z,64.40
2017-11-17T04:24:01.294Z,64.60
2017-11-17T04:26:28.759Z,64.60
2017-11-17T04:28:56.240Z,64.50
2017-11-17T04:31:24.463Z,64.50
2017-11-17T04:33:51.930Z,64.50
2017-11-17T04:36:20.148Z,64.70
2017-11-17T04:38:47.599Z,64.60
2017-11-17T04:41:15.051Z,64.60
2017-11-17T04:43:42.515Z,64.40
2017-11-17T04:46:09.963Z,64.50
2017-11-17T04:48:37.423Z,64.40
2017-11-17T04:51:04.871Z,64.30
2017-11-17T04:53:33.150Z,64.40
2017-11-17T04:56:00.595Z,64.30
2017-11-17T04:58:28.067Z,64.30
2017-11-17T05:00:55.526Z,64.90
2017-11-17T05:03:22.982Z,64.30
2017-11-17T05:05:50.461Z,64.20
2017-11-17T05:08:17.917Z,64.20
2017-11-17T05:10:46.143Z,64.30
2017-11-17T05:13:13.599Z,64.20
2017-11-17T05:15:41.824Z,64.30
2017-11-17T05:18:10.056Z,64.20
2017-11-17T05:20:37.508Z,64.10
2017-11-17T05:23:04.957Z,64.10
2017-11-17T05:25:33.176Z,64.10
2017-11-17T05:28:02.134Z,64.00
2017-11-17T05:30:29.587Z,63.90
2017-11-17T05:32:57.035Z,64.00
2017-11-17T05:35:25.252Z,63.90
2017-11-17T05:37:52.706Z,63.90
2017-11-17T05:40:20.167Z,63.90
2017-11-17T05:42:47.623Z,63.90
2017-11-17T05:45:15.084Z,63.90
2017-11-17T05:47:42.539Z,63.70
2017-11-17T05:50:09.993Z,63.90
2017-11-17T05:52:37.447Z,63.90
2017-11-17T05:55:04.902Z,63.90
2017-11-17T05:57:32.351Z,63.90
2017-11-17T06:02:34.346Z,63.70
2017-11-17T06:05:01.821Z,63.70
2017-11-17T06:07:29.389Z,63.80
2017-11-17T06:09:56.848Z,63.70
2017-11-17T06:12:25.062Z,63.90
2017-11-17T06:14:53.294Z,63.90
2017-11-17T06:17:21.556Z,63.80
2017-11-17T06:19:49.001Z,63.80
2017-11-17T06:22:17.980Z,63.70
2017-11-17T06:24:45.436Z,63.70
2017-11-17T06:27:13.667Z,63.70
2017-11-17T06:29:41.899Z,63.70
2017-11-17T06:32:09.359Z,63.70
2017-11-17T06:34:36.812Z,63.80
2017-11-17T06:37:04.259Z,63.60
2017-11-17T06:39:31.729Z,63.50
2017-11-17T06:41:59.184Z,63.40
2017-11-17T06:44:26.634Z,63.40
2017-11-17T06:46:54.863Z,63.30
2017-11-17T06:49:22.298Z,63.40
2017-11-17T06:51:50.555Z,63.40
2017-11-17T06:54:18.008Z,63.40
2017-11-17T06:56:45.468Z,63.30
2017-11-17T06:59:12.918Z,63.30
2017-11-17T07:01:40.379Z,63.20
2017-11-17T07:04:07.836Z,63.30
2017-11-17T07:06:35.294Z,63.40
2017-11-17T07:09:02.746Z,63.20
2017-11-17T07:11:30.209Z,63.10
2017-11-17T07:13:57.670Z,63.00
2017-11-17T07:16:25.129Z,63.10
2017-11-17T07:18:52.571Z,63.00
2017-11-17T07:21:20.794Z,63.00
2017-11-17T07:23:49.028Z,62.90
2017-11-17T07:26:16.504Z,62.90
2017-11-17T07:28:43.944Z,62.90
2017-11-17T07:31:11.386Z,63.00
2017-11-17T07:33:38.847Z,62.90
2017-11-17T07:36:06.320Z,62.80
2017-11-17T07:38:33.787Z,63.00
2017-11-17T07:41:01.232Z,63.00
2017-11-17T07:43:28.700Z,62.80
2017-11-17T07:45:56.147Z,62.70
2017-11-17T07:48:23.611Z,62.80
2017-11-17T07:50:51.061Z,62.80
2017-11-17T07:53:18.518Z,62.70
2017-11-17T07:55:46.757Z,62.50
2017-11-17T07:58:14.207Z,62.50
2017-11-17T08:00:41.676Z,62.60
2017-11-17T08:03:09.135Z,62.40
2017-11-17T08:05:37.353Z,62.40
2017-11-17T08:08:06.326Z,62.40
2017-11-17T08:10:34.554Z,62.20
2017-11-17T08:13:02.775Z,62.20
2017-11-17T08:15:30.231Z,62.20
2017-11-17T08:18:09.530Z,62.30
2017-11-17T08:20:36.998Z,62.20
2017-11-17T08:23:04.455Z,62.20
2017-11-17T08:25:31.943Z,62.50
2017-11-17T08:27:59.387Z,62.30
2017-11-17T08:30:26.861Z,62.30
2017-11-17T08:32:54.306Z,62.30
2017-11-17T08:35:21.769Z,62.40
2017-11-17T08:37:49.233Z,62.40
2017-11-17T08:40:16.687Z,62.50
2017-11-17T08:42:44.148Z,62.60
2017-11-17T08:45:11.607Z,62.80
2017-11-17T08:47:39.068Z,63.00
2017-11-17T08:50:06.525Z,63.10
2017-11-17T08:52:33.976Z,63.30
2017-11-17T08:55:01.448Z,63.30
2017-11-17T08:57:28.895Z,63.60
2017-11-17T08:59:56.356Z,64.40
2017-11-17T09:02:23.818Z,63.80
2017-11-17T09:04:51.279Z,63.80
2017-11-17T09:07:18.724Z,63.90
2017-11-17T09:09:46.187Z,64.00
2017-11-17T09:12:13.640Z,64.20
2017-11-17T09:14:41.099Z,64.10
2017-11-17T09:17:09.315Z,64.30
2017-11-17T09:19:36.784Z,64.30
2017-11-17T09:22:04.235Z,64.40
2017-11-17T09:24:31.683Z,64.10
2017-11-17T09:26:59.909Z,64.00
2017-11-17T09:29:27.363Z,63.90
2017-11-17T09:31:55.716Z,63.80
2017-11-17T09:34:23.170Z,63.80
2017-11-17T09:36:50.639Z,63.60
2017-11-17T09:39:18.091Z,63.50
2017-11-17T09:41:45.559Z,63.00
2017-11-17T09:44:13.029Z,62.90
2017-11-17T09:46:40.483Z,63.20
2017-11-17T09:49:07.935Z,63.90
2017-11-17T09:51:35.399Z,64.30
2017-11-17T09:54:03.598Z,64.70
2017-11-17T09:56:31.048Z,64.80
2017-11-17T09:58:58.491Z,64.70
2017-11-17T10:01:25.948Z,63.60
2017-11-17T10:03:53.404Z,63.20
2017-11-17T10:06:20.858Z,63.00
2017-11-17T10:08:48.319Z,63.90
2017-11-17T10:11:15.774Z,63.30
2017-11-17T10:13:43.231Z,63.20
2017-11-17T10:16:11.472Z,62.50
2017-11-17T10:18:38.931Z,62.50
2017-11-17T10:21:06.404Z,62.00
2017-11-17T10:23:33.853Z,61.70
2017-11-17T10:26:01.313Z,61.50
2017-11-17T10:28:28.769Z,61.30
2017-11-17T10:30:56.239Z,61.00
2017-11-17T10:33:23.695Z,60.60
2017-11-17T10:35:51.186Z,60.00
2017-11-17T10:38:19.402Z,59.40
2017-11-17T10:40:46.856Z,59.40
2017-11-17T10:43:14.333Z,58.60
2017-11-17T10:45:42.537Z,57.50
2017-11-17T10:48:10.015Z,57.40
2017-11-17T10:50:38.224Z,56.20
2017-11-17T10:53:05.691Z,56.20
2017-11-17T10:55:33.903Z,54.50
2017-11-17T10:58:01.369Z,54.50
2017-11-17T11:00:28.812Z,52.50
2017-11-17T11:05:30.929Z,45.20
2017-11-17T11:07:58.394Z,45.10
2017-11-17T11:10:26.619Z,42.90
2017-11-17T11:12:54.080Z,42.90
2017-11-17T11:15:21.535Z,42.30
2017-11-17T11:17:48.992Z,42.10
2017-11-17T11:20:16.445Z,42.00
2017-11-17T11:22:43.920Z,41.70
2017-11-17T11:25:11.376Z,41.70
2017-11-17T11:27:38.843Z,40.90
2017-11-17T11:30:07.062Z,40.40
2017-11-17T11:32:34.507Z,40.30
2017-11-17T11:35:02.739Z,39.00
2017-11-17T11:37:30.194Z,39.00
2017-11-17T11:39:57.659Z,38.70
2017-11-17T11:42:25.111Z,38.60
2017-11-17T11:44:52.569Z,38.00
2017-11-17T11:47:20.024Z,36.50
2017-11-17T11:49:47.535Z,35.90
2017-11-17T11:52:14.990Z,35.10
2017-11-17T11:54:43.207Z,33.90
2017-11-17T11:57:12.555Z,32.70
2017-11-17T11:59:40.782Z,32.50
2017-11-17T12:02:08.227Z,32.50
2017-11-17T12:04:35.686Z,31.90
2017-11-17T12:07:03.156Z,31.00
2017-11-17T12:09:30.615Z,30.90
2017-11-17T12:11:58.070Z,30.80
2017-11-17T12:14:25.523Z,30.80
2017-11-17T12:16:53.756Z,31.40
2017-11-17T12:19:21.978Z,31.80
2017-11-17T12:21:49.431Z,31.90
2017-11-17T12:24:16.889Z,32.10
2017-11-17T12:26:44.359Z,32.30
2017-11-17T12:29:11.823Z,32.00
2017-11-17T12:31:39.288Z,31.30
2017-11-17T12:34:06.743Z,30.60
2017-11-17T12:36:34.200Z,30.20
2017-11-17T12:39:01.653Z,29.40
2017-11-17T12:41:29.109Z,28.90
2017-11-17T12:43:56.551Z,28.50
2017-11-17T12:46:24.024Z,28.20
2017-11-17T12:48:51.483Z,28.20
2017-11-17T12:51:18.950Z,28.10
2017-11-17T12:53:46.398Z,28.00
2017-11-17T12:56:13.865Z,27.90
2017-11-17T12:58:41.315Z,28.00
2017-11-17T13:01:08.775Z,28.90
2017-11-17T13:03:36.236Z,31.40
2017-11-17T13:06:03.700Z,33.90
2017-11-17T13:08:31.154Z,35.00
2017-11-17T13:10:58.602Z,35.00
2017-11-17T13:13:26.823Z,31.00
2017-11-17T13:15:54.278Z,30.90
2017-11-17T13:18:21.736Z,30.00
2017-11-17T13:20:49.978Z,30.60
2017-11-17T13:23:17.412Z,30.60
2017-11-17T13:25:44.866Z,33.40
2017-11-17T13:28:13.102Z,37.60
2017-11-17T13:30:40.560Z,37.60
2017-11-17T13:33:08.015Z,39.00
2017-11-17T13:35:35.471Z,40.10
2017-11-17T13:38:03.691Z,42.20
2017-11-17T13:40:31.140Z,42.20
2017-11-17T13:42:58.603Z,42.30
2017-11-17T13:45:26.054Z,41.90
2017-11-17T13:47:53.502Z,41.10
2017-11-17T13:50:20.960Z,39.00
2017-11-17T13:52:48.414Z,36.90
2017-11-17T13:55:15.871Z,36.50
2017-11-17T13:57:43.335Z,35.50
2017-11-17T14:00:10.792Z,36.00
2017-11-17T14:02:38.253Z,38.00
2017-11-17T14:05:05.714Z,39.90
2017-11-17T14:07:33.157Z,41.80
2017-11-17T14:10:00.603Z,43.10
2017-11-17T14:12:28.070Z,44.70
2017-11-17T14:14:56.293Z,47.30
2017-11-17T14:17:23.727Z,47.30
2017-11-17T14:19:51.188Z,48.10
2017-11-17T14:22:18.640Z,49.30
2017-11-17T14:24:46.099Z,48.70
2017-11-17T14:27:13.542Z,48.70
2017-11-17T14:29:41.018Z,49.00
2017-11-17T14:32:08.470Z,48.60
2017-11-17T14:34:35.929Z,48.20
2017-11-17T14:37:03.380Z,48.80
2017-11-17T14:39:30.837Z,49.60
2017-11-17T14:41:58.706Z,50.20
2017-11-17T14:44:26.160Z,50.30
2017-11-17T14:46:54.366Z,51.20
2017-11-17T14:49:21.827Z,51.30
2017-11-17T14:51:49.282Z,51.80
2017-11-17T14:54:16.749Z,52.40
2017-11-17T14:56:44.963Z,53.20
2017-11-17T14:59:12.426Z,53.20
2017-11-17T15:01:39.891Z,53.50
2017-11-17T15:04:07.344Z,54.00
2017-11-17T15:06:34.798Z,54.40
2017-11-17T15:09:02.258Z,54.70
2017-11-17T15:11:29.715Z,55.00
2017-11-17T15:13:57.168Z,55.40
2017-11-17T15:16:24.622Z,55.50
2017-11-17T15:18:52.850Z,55.90
2017-11-17T15:21:21.088Z,56.00
2017-11-17T15:23:48.548Z,56.00
2017-11-17T15:26:16.007Z,56.20
2017-11-17T15:28:43.459Z,56.40
2017-11-17T15:31:11.706Z,56.70
2017-11-17T15:33:39.179Z,56.70
2017-11-17T15:36:06.639Z,56.80
2017-11-17T15:38:34.099Z,56.90
2017-11-17T15:41:01.551Z,57.00
2017-11-17T15:43:29.007Z,57.00
2017-11-17T15:45:56.480Z,57.20
2017-11-17T15:48:23.939Z,57.20
2017-11-17T15:50:51.399Z,57.40
2017-11-17T15:53:18.859Z,57.40
2017-11-17T15:55:47.092Z,57.60
2017-11-17T15:58:14.562Z,57.50
2017-11-17T16:00:42.040Z,57.60
2017-11-17T16:03:09.506Z,57.50
2017-11-17T16:05:36.967Z,57.60
2017-11-17T16:08:04.451Z,57.60
2017-11-17T16:10:31.911Z,57.60
2017-11-17T16:12:59.393Z,57.70
2017-11-17T16:15:26.864Z,57.70
2017-11-17T16:17:54.321Z,57.80
2017-11-17T16:20:21.788Z,57.80
2017-11-17T16:22:49.243Z,57.80
2017-11-17T16:25:16.709Z,57.90
2017-11-17T16:27:44.959Z,58.00
2017-11-17T16:30:12.433Z,58.00
2017-11-17T16:32:39.899Z,58.10
2017-11-17T16:35:07.379Z,58.20
2017-11-17T16:37:35.598Z,58.30
2017-11-17T16:40:03.847Z,58.30
2017-11-17T16:42:31.311Z,58.40
2017-11-17T16:44:58.763Z,58.50
2017-11-17T16:47:26.220Z,58.50
2017-11-17T16:49:53.698Z,58.70
2017-11-17T16:52:21.920Z,58.70
2017-11-17T16:54:49.390Z,58.60
2017-11-17T16:57:16.863Z,58.80
2017-11-17T16:59:45.094Z,59.00
2017-11-17T17:02:12.540Z,59.00
2017-11-17T17:04:39.991Z,58.90
2017-11-17T17:07:07.450Z,59.00
2017-11-17T17:09:34.905Z,59.10
2017-11-17T17:12:02.366Z,59.10
2017-11-17T17:14:29.834Z,59.10
2017-11-17T17:16:57.290Z,59.20
2017-11-17T17:19:24.735Z,59.20
2017-11-17T17:21:52.206Z,59.10
2017-11-17T17:24:19.651Z,59.20
2017-11-17T17:26:47.122Z,59.20
2017-11-17T17:29:14.584Z,59.10
2017-11-17T17:31:42.059Z,59.20
2017-11-17T17:34:09.522Z,59.20
2017-11-17T17:36:36.972Z,59.30
2017-11-17T17:39:04.427Z,59.20
2017-11-17T17:41:31.896Z,59.20
2017-11-17T17:43:59.343Z,59.20
2017-11-17T17:46:26.799Z,59.20
2017-11-17T17:48:54.249Z,59.20
2017-11-17T17:51:21.698Z,59.20
2017-11-17T17:53:49.161Z,59.20
2017-11-17T17:56:17.402Z,59.30
2017-11-17T17:58:45.615Z,59.40
2017-11-17T18:01:13.090Z,59.30
2017-11-17T18:03:40.544Z,59.40
2017-11-17T18:06:07.996Z,59.40
2017-11-17T18:08:35.459Z,59.40
2017-11-17T18:11:02.899Z,59.40
2017-11-17T18:13:30.363Z,59.60
2017-11-17T18:15:57.816Z,59.60
2017-11-17T18:18:25.275Z,59.60
2017-11-17T18:20:52.727Z,59.60
2017-11-17T18:23:20.189Z,59.60
2017-11-17T18:25:47.639Z,59.70
2017-11-17T18:28:15.118Z,59.70
2017-11-17T18:30:42.583Z,59.80
2017-11-17T18:33:10.051Z,59.70
2017-11-17T18:35:37.550Z,59.80
2017-11-17T18:38:04.978Z,59.80
2017-11-17T18:40:32.438Z,59.70
2017-11-17T18:43:01.424Z,59.90
2017-11-17T18:45:29.670Z,59.80
2017-11-17T18:47:57.864Z,59.80
2017-11-17T18:50:25.376Z,59.80
2017-11-17T18:52:52.805Z,59.80
2017-11-17T18:55:21.019Z,59.80
2017-11-17T18:57:48.481Z,59.80
2017-11-17T19:00:15.965Z,59.80
2017-11-17T19:02:43.434Z,59.80
2017-11-17T19:05:10.862Z,59.70
2017-11-17T19:07:38.315Z,59.80
2017-11-17T19:10:05.772Z,59.60
2017-11-17T19:12:33.998Z,59.70
2017-11-17T19:15:02.230Z,59.70
2017-11-17T19:17:29.687Z,59.80
2017-11-17T19:19:57.146Z,59.60
2017-11-17T19:22:24.591Z,59.50
2017-11-17T19:24:52.038Z,59.50
2017-11-17T19:27:19.494Z,59.70
2017-11-17T19:29:46.952Z,59.70
2017-11-17T19:32:14.412Z,59.60
2017-11-17T19:34:42.643Z,59.40
2017-11-17T19:37:10.866Z,59.40
2017-11-17T19:39:38.320Z,59.40
2017-11-17T19:42:05.801Z,59.50
2017-11-17T19:44:33.251Z,59.50
2017-11-17T19:47:00.728Z,59.40
2017-11-17T19:49:28.947Z,59.50
2017-11-17T19:51:56.407Z,59.50
2017-11-17T19:54:23.862Z,59.50
2017-11-17T19:56:52.095Z,59.60
2017-11-17T19:59:19.555Z,59.50
2017-11-17T20:01:47.011Z,59.40
2017-11-17T20:04:14.470Z,59.50
2017-11-17T20:06:41.931Z,59.60
2017-11-17T20:09:09.380Z,59.60
2017-11-17T20:11:36.835Z,59.50
2017-11-17T20:14:04.299Z,59.50
2017-11-17T20:16:31.801Z,59.50
2017-11-17T20:18:59.237Z,59.50
2017-11-17T20:21:26.695Z,59.40
2017-11-17T20:23:54.165Z,59.50
2017-11-17T20:26:22.396Z,59.60
2017-11-17T20:28:49.860Z,59.60
2017-11-17T20:31:17.316Z,59.50
2017-11-17T20:33:44.776Z,59.60
2017-11-17T20:36:12.994Z,59.60
2017-11-17T20:38:40.556Z,59.60
2017-11-17T20:41:08.039Z,59.50
2017-11-17T20:43:35.523Z,60.20
2017-11-17T20:46:02.978Z,59.50
2017-11-17T20:48:31.256Z,59.50
2017-11-17T20:50:59.471Z,59.70
2017-11-17T20:53:27.702Z,59.60
2017-11-17T20:55:55.152Z,59.60
2017-11-17T20:58:23.380Z,59.60
2017-11-17T21:00:51.622Z,59.60
2017-11-17T21:03:19.095Z,59.60
2017-11-17T21:05:46.550Z,59.60
2017-11-17T21:08:14.044Z,59.60
2017-11-17T21:10:41.498Z,59.80
2017-11-17T21:13:08.976Z,59.60
2017-11-17T21:15:36.430Z,59.60
2017-11-17T21:18:03.891Z,59.70
2017-11-17T21:20:31.353Z,59.70
2017-11-17T21:22:58.804Z,59.60
2017-11-17T21:25:26.284Z,59.70
2017-11-17T21:27:53.763Z,59.70
2017-11-17T21:30:21.215Z,59.60
2017-11-17T21:32:48.684Z,59.60
2017-11-17T21:35:16.144Z,59.40
2017-11-17T21:37:43.600Z,59.60
2017-11-17T21:40:11.078Z,59.50
2017-11-17T21:42:39.313Z,59.60
2017-11-17T21:45:06.759Z,59.60
2017-11-17T21:47:34.242Z,59.60
2017-11-17T21:50:01.716Z,59.50
2017-11-17T21:52:29.957Z,59.60
2017-11-17T21:54:57.427Z,59.50
2017-11-17T21:57:24.883Z,59.50
2017-11-17T21:59:52.352Z,59.60
2017-11-17T22:02:19.808Z,59.60
2017-11-17T22:04:47.280Z,59.60
2017-11-17T22:07:15.515Z,59.70
2017-11-17T22:09:42.979Z,59.70
2017-11-17T22:12:10.432Z,59.80
2017-11-17T22:14:37.906Z,59.80
2017-11-17T22:17:05.372Z,59.90
2017-11-17T22:19:32.818Z,60.00
2017-11-17T22:22:01.055Z,60.20
2017-11-17T22:24:29.275Z,60.20
2017-11-17T22:26:56.746Z,60.20
2017-11-17T22:29:24.210Z,60.40
2017-11-17T22:31:52.451Z,60.60
2017-11-17T22:34:19.906Z,60.60
2017-11-17T22:36:48.155Z,60.70
2017-11-17T22:39:15.607Z,60.60
2017-11-17T22:41:43.089Z,60.70
2017-11-17T22:44:11.347Z,60.80
2017-11-17T22:46:38.825Z,60.80
2017-11-17T22:49:06.311Z,60.80
2017-11-17T22:51:35.283Z,61.00
2017-11-17T22:54:02.747Z,61.00
2017-11-17T22:56:30.261Z,61.00
2017-11-17T22:58:57.726Z,60.90
2017-11-17T23:01:25.971Z,61.00
2017-11-17T23:03:54.203Z,61.10
2017-11-17T23:06:21.660Z,61.10
2017-11-17T23:08:49.879Z,61.40
2017-11-17T23:11:18.103Z,61.30
2017-11-17T23:13:45.580Z,61.30
2017-11-17T23:16:13.047Z,61.30
2017-11-17T23:18:40.530Z,61.40
2017-11-17T23:21:07.984Z,61.40
2017-11-17T23:23:36.228Z,61.20
2017-11-17T23:26:03.704Z,61.20
2017-11-17T23:28:31.261Z,62.10
2017-11-17T23:30:58.722Z,61.40
2017-11-17T23:33:27.019Z,61.50
2017-11-17T23:35:54.485Z,61.50
2017-11-17T23:38:21.995Z,61.70
2017-11-17T23:40:49.463Z,61.70
2017-11-17T23:43:16.946Z,61.60
2017-11-17T23:45:46.863Z,61.60
2017-11-17T23:48:15.103Z,61.70
2017-11-17T23:50:42.571Z,61.70
2017-11-17T23:53:10.851Z,61.90
2017-11-17T23:55:38.311Z,61.90
2017-11-17T23:58:05.807Z,61.90
